createdAt,value
2018-02-08T00:05:10.849Z,77.75
2018-02-08T00:10:40.784Z,67.72
2018-02-08T00:13:15.201Z,68.85
2018-02-08T00:15:42.953Z,68.53
2018-02-08T00:18:10.565Z,67.35
2018-02-08T00:20:38.844Z,66.87
2018-02-08T00:23:07.229Z,62.42
2018-02-08T00:25:35.585Z,64.62
2018-02-08T00:28:04.107Z,63.38
2018-02-08T00:30:31.658Z,71.43
2018-02-08T00:32:59.194Z,77.15
2018-02-08T00:35:26.782Z,77.95
2018-02-08T00:37:55.077Z,77.12
2018-02-08T00:40:22.710Z,70.03
2018-02-08T00:42:51.042Z,74.32
2018-02-08T00:45:18.602Z,74.85
2018-02-08T00:47:46.189Z,72.85
2018-02-08T00:50:13.785Z,74.60
2018-02-08T00:52:41.335Z,79.55
2018-02-08T00:55:08.941Z,71.57
2018-02-08T00:57:36.569Z,76.45
2018-02-08T01:00:04.944Z,88.05
2018-02-08T01:02:32.518Z,75.07
2018-02-08T01:05:00.119Z,77.95
2018-02-08T01:07:28.637Z,81.18
2018-02-08T01:09:58.359Z,75.28
2018-02-08T01:12:27.242Z,74.35
2018-02-08T01:14:54.903Z,75.05
2018-02-08T01:17:24.702Z,69.62
2018-02-08T01:19:52.302Z,77.70
2018-02-08T01:22:19.984Z,64.90
2018-02-08T01:24:49.025Z,81.15
2018-02-08T01:27:16.692Z,76.00
2018-02-08T01:29:44.310Z,68.18
2018-02-08T01:32:11.937Z,66.75
2018-02-08T01:34:39.561Z,74.95
2018-02-08T01:37:07.218Z,83.22
2018-02-08T01:39:36.025Z,71.60
2018-02-08T01:42:03.650Z,77.05
2018-02-08T01:44:31.310Z,67.95
2018-02-08T01:46:58.938Z,78.55
2018-02-08T01:49:38.267Z,86.82
2018-02-08T01:52:05.986Z,61.37
2018-02-08T01:54:33.600Z,66.85
2018-02-08T01:57:01.453Z,80.55
2018-02-08T01:59:29.173Z,79.22
2018-02-08T02:01:56.865Z,73.70
2018-02-08T02:04:24.494Z,75.87
2018-02-08T02:06:52.118Z,79.70
2018-02-08T02:09:19.809Z,78.18
2018-02-08T02:11:47.402Z,70.10
2018-02-08T02:14:15.076Z,71.03
2018-02-08T02:16:43.585Z,68.62
2018-02-08T02:19:11.277Z,80.68
2018-02-08T02:21:38.889Z,79.57
2018-02-08T02:24:07.266Z,69.60
2018-02-08T02:26:34.845Z,83.55
2018-02-08T02:29:04.434Z,80.47
2018-02-08T02:31:32.081Z,90.45
2018-02-08T02:33:59.665Z,81.70
2018-02-08T02:36:27.210Z,87.00
2018-02-08T02:38:54.757Z,77.87
2018-02-08T02:41:22.361Z,74.10
2018-02-08T02:43:50.658Z,81.20
2018-02-08T02:46:18.366Z,75.25
2018-02-08T02:48:45.945Z,93.62
2018-02-08T02:51:13.565Z,75.18
2018-02-08T02:53:41.163Z,84.37
2018-02-08T02:56:08.782Z,82.25
2018-02-08T02:58:40.326Z,86.10
2018-02-08T03:01:07.904Z,84.53
2018-02-08T03:03:35.517Z,85.40
2018-02-08T03:06:03.052Z,79.53
2018-02-08T03:08:33.770Z,84.57
2018-02-08T03:11:06.622Z,78.20
2018-02-08T03:13:34.198Z,78.70
2018-02-08T03:16:04.705Z,77.75
2018-02-08T03:18:32.364Z,80.28
2018-02-08T03:21:00.005Z,88.12
2018-02-08T03:23:27.655Z,85.10
2018-02-08T03:25:55.265Z,80.72
2018-02-08T03:28:23.018Z,88.45
2018-02-08T03:30:59.554Z,87.85
2018-02-08T03:33:30.994Z,76.28
2018-02-08T03:35:58.701Z,79.03
2018-02-08T03:38:26.299Z,87.45
2018-02-08T03:40:57.378Z,84.40
2018-02-08T03:43:26.858Z,81.05
2018-02-08T03:45:56.010Z,79.50
2018-02-08T03:48:44.940Z,84.22
2018-02-08T03:53:59.061Z,85.60
2018-02-08T04:02:40.126Z,83.32
2018-02-08T04:05:12.827Z,95.50
2018-02-08T04:07:42.202Z,82.10
2018-02-08T04:10:21.306Z,100.10
2018-02-08T04:12:50.109Z,90.80
2018-02-08T04:15:21.188Z,103.82
2018-02-08T04:17:48.765Z,81.90
2018-02-08T04:20:17.073Z,95.15
2018-02-08T04:22:44.666Z,91.55
2018-02-08T04:25:12.219Z,84.05
2018-02-08T04:27:39.759Z,95.87
2018-02-08T04:30:07.341Z,92.97
2018-02-08T04:32:34.880Z,84.85
2018-02-08T04:35:02.470Z,82.12
2018-02-08T04:37:30.062Z,93.55
2018-02-08T04:40:10.380Z,104.35
2018-02-08T04:42:49.696Z,84.95
2018-02-08T04:45:29.032Z,92.20
2018-02-08T04:48:13.355Z,102.00
2018-02-08T04:50:41.702Z,102.43
2018-02-08T04:53:09.285Z,93.80
2018-02-08T04:55:36.818Z,92.78
2018-02-08T04:58:04.595Z,97.43
2018-02-08T05:00:32.409Z,94.18
2018-02-08T05:03:00.148Z,90.78
2018-02-08T05:05:27.981Z,103.82
2018-02-08T05:07:55.674Z,103.90
2018-02-08T05:10:23.320Z,94.32
2018-02-08T05:12:50.853Z,92.85
2018-02-08T05:15:19.539Z,109.30
2018-02-08T05:17:47.073Z,95.40
2018-02-08T05:20:14.596Z,108.05
2018-02-08T05:22:42.189Z,112.15
2018-02-08T05:25:10.626Z,106.95
2018-02-08T05:27:40.489Z,101.03
2018-02-08T05:30:08.818Z,98.57
2018-02-08T05:32:37.300Z,106.47
2018-02-08T05:35:16.489Z,94.65
2018-02-08T05:37:44.714Z,114.78
2018-02-08T05:40:13.218Z,104.32
2018-02-08T05:42:41.550Z,97.43
2018-02-08T05:45:09.178Z,118.05
2018-02-08T05:47:36.718Z,105.82
2018-02-08T05:50:05.680Z,104.18
2018-02-08T05:52:33.329Z,111.28
2018-02-08T05:55:00.890Z,102.90
2018-02-08T05:57:29.213Z,106.97
2018-02-08T05:59:56.784Z,107.18
2018-02-08T06:02:24.309Z,102.35
2018-02-08T06:04:51.840Z,104.95
2018-02-08T06:07:19.383Z,107.70
2018-02-08T06:09:46.905Z,109.68
2018-02-08T06:12:14.496Z,100.93
2018-02-08T06:14:42.797Z,105.00
2018-02-08T06:17:10.366Z,113.00
2018-02-08T06:19:37.889Z,97.57
2018-02-08T06:22:06.189Z,104.20
2018-02-08T06:24:33.705Z,97.75
2018-02-08T06:27:01.242Z,106.78
2018-02-08T06:29:29.095Z,103.20
2018-02-08T06:31:56.613Z,99.40
2018-02-08T06:34:24.912Z,96.60
2018-02-08T06:36:53.326Z,101.87
2018-02-08T06:39:21.849Z,123.22
2018-02-08T06:41:50.195Z,104.93
2018-02-08T06:44:17.850Z,107.30
2018-02-08T06:46:45.506Z,107.30
2018-02-08T06:49:14.047Z,103.28
2018-02-08T06:51:41.647Z,103.43
2018-02-08T06:54:09.238Z,119.40
2018-02-08T06:56:37.559Z,107.25
2018-02-08T06:59:05.155Z,117.03
2018-02-08T07:01:32.755Z,110.50
2018-02-08T07:04:01.106Z,106.37
2018-02-08T07:06:28.853Z,115.15
2018-02-08T07:08:56.430Z,117.32
2018-02-08T07:11:37.442Z,120.68
2018-02-08T07:16:50.424Z,107.95
2018-02-08T07:19:18.013Z,115.93
2018-02-08T07:21:45.554Z,115.95
2018-02-08T07:24:13.146Z,104.32
2018-02-08T07:26:40.703Z,100.57
2018-02-08T07:29:09.950Z,98.28
2018-02-08T07:31:38.515Z,116.35
2018-02-08T07:34:06.836Z,114.20
2018-02-08T07:36:34.347Z,98.37
2018-02-08T07:39:02.664Z,114.35
2018-02-08T07:41:30.185Z,112.80
2018-02-08T07:43:58.471Z,114.45
2018-02-08T07:46:26.024Z,113.68
2018-02-08T07:48:54.362Z,110.03
2018-02-08T07:51:21.911Z,118.95
2018-02-08T07:53:49.433Z,126.43
2018-02-08T07:56:17.746Z,109.68
2018-02-08T07:58:45.279Z,123.43
2018-02-08T08:01:12.815Z,112.37
2018-02-08T08:03:41.101Z,111.82
2018-02-08T08:06:09.387Z,125.78
2018-02-08T08:08:37.565Z,116.97
2018-02-08T08:11:05.084Z,108.15
2018-02-08T08:13:32.622Z,114.05
2018-02-08T08:16:00.169Z,109.60
2018-02-08T08:18:30.888Z,117.35
2018-02-08T08:20:58.417Z,111.03
2018-02-08T08:23:25.950Z,115.80
2018-02-08T08:25:53.470Z,113.62
2018-02-08T08:28:22.993Z,107.97
2018-02-08T08:30:50.521Z,105.47
2018-02-08T08:33:18.795Z,105.40
2018-02-08T08:35:47.307Z,123.75
2018-02-08T08:38:14.943Z,113.97
2018-02-08T08:40:42.474Z,105.28
2018-02-08T08:43:09.989Z,125.93
2018-02-08T08:45:37.572Z,121.93
2018-02-08T08:48:05.092Z,128.62
2018-02-08T08:50:32.600Z,108.15
2018-02-08T08:53:00.132Z,107.80
2018-02-08T08:55:27.661Z,101.57
2018-02-08T08:58:00.876Z,117.97
2018-02-08T09:00:29.437Z,105.72
2018-02-08T09:02:56.980Z,102.70
2018-02-08T09:05:24.992Z,117.13
2018-02-08T09:07:53.502Z,105.15
2018-02-08T09:10:21.189Z,107.75
2018-02-08T09:12:48.696Z,98.80
2018-02-08T09:15:16.416Z,112.82
2018-02-08T09:17:44.706Z,106.18
2018-02-08T09:20:14.034Z,105.60
2018-02-08T09:22:42.332Z,99.45
2018-02-08T09:25:11.103Z,97.22
2018-02-08T09:27:39.383Z,95.60
2018-02-08T09:30:07.558Z,118.22
2018-02-08T09:32:35.778Z,106.28
2018-02-08T09:35:03.964Z,105.00
2018-02-08T09:37:32.207Z,105.65
2018-02-08T09:40:00.098Z,99.22
2018-02-08T09:42:29.300Z,103.03
2018-02-08T09:44:57.382Z,119.32
2018-02-08T09:47:26.098Z,101.03
2018-02-08T09:49:53.822Z,119.45
2018-02-08T09:52:22.283Z,105.25
2018-02-08T09:54:50.785Z,102.15
2018-02-08T09:57:19.089Z,99.43
2018-02-08T09:59:48.447Z,101.45
2018-02-08T10:02:15.968Z,106.30
2018-02-08T10:04:43.531Z,115.18
2018-02-08T10:07:11.823Z,105.45
2018-02-08T10:09:39.326Z,92.70
2018-02-08T10:12:06.860Z,106.15
2018-02-08T10:14:34.368Z,95.90
2018-02-08T10:17:02.698Z,115.28
2018-02-08T10:19:31.225Z,99.60
2018-02-08T10:21:59.520Z,99.55
2018-02-08T10:24:27.796Z,100.15
2018-02-08T10:26:55.379Z,86.12
2018-02-08T10:29:22.904Z,115.53
2018-02-08T10:31:52.076Z,109.68
2018-02-08T10:34:20.429Z,97.95
2018-02-08T10:36:48.728Z,89.45
2018-02-08T10:39:16.258Z,98.00
2018-02-08T10:41:43.768Z,100.00
2018-02-08T10:44:12.411Z,92.22
2018-02-08T10:46:39.968Z,100.00
2018-02-08T10:49:07.484Z,111.35
2018-02-08T10:51:35.774Z,108.45
2018-02-08T10:54:04.118Z,95.65
2018-02-08T10:56:31.662Z,100.75
2018-02-08T10:58:59.194Z,94.80
2018-02-08T11:01:26.729Z,94.40
2018-02-08T11:03:55.016Z,102.32
2018-02-08T11:06:22.555Z,94.55
2018-02-08T11:08:50.860Z,101.35
2018-02-08T11:11:18.364Z,101.47
2018-02-08T11:13:45.900Z,94.05
2018-02-08T11:16:13.409Z,116.28
2018-02-08T11:18:40.958Z,93.62
2018-02-08T11:21:08.473Z,102.30
2018-02-08T11:23:36.004Z,99.22
2018-02-08T11:26:04.297Z,101.57
2018-02-08T11:28:31.838Z,109.30
2018-02-08T11:31:00.105Z,105.30
2018-02-08T11:33:28.382Z,112.12
2018-02-08T11:35:55.912Z,106.05
2018-02-08T11:38:23.467Z,100.05
2018-02-08T11:40:51.019Z,100.60
2018-02-08T11:43:18.525Z,111.72
2018-02-08T11:45:46.839Z,115.88
2018-02-08T11:48:14.357Z,103.45
2018-02-08T11:50:41.965Z,103.20
2018-02-08T11:53:09.466Z,92.60
2018-02-08T11:55:37.006Z,102.30
2018-02-08T11:58:04.525Z,104.82
2018-02-08T12:00:32.057Z,122.03
2018-02-08T12:02:59.640Z,107.65
2018-02-08T12:05:27.919Z,97.20
2018-02-08T12:07:55.449Z,112.72
2018-02-08T12:10:22.948Z,90.75
2018-02-08T12:12:50.493Z,120.75
2018-02-08T12:15:18.770Z,92.65
2018-02-08T12:17:47.059Z,100.12
2018-02-08T12:20:18.190Z,105.55
2018-02-08T12:22:46.491Z,97.07
2018-02-08T12:25:13.996Z,102.60
2018-02-08T12:27:42.335Z,106.03
2018-02-08T12:30:09.895Z,123.13
2018-02-08T12:32:37.408Z,118.18
2018-02-08T12:35:04.935Z,96.40
2018-02-08T12:37:32.440Z,111.88
2018-02-08T12:40:00.756Z,102.30
2018-02-08T12:42:28.269Z,105.65
2018-02-08T12:44:56.586Z,104.00
2018-02-08T12:47:24.122Z,107.82
2018-02-08T12:49:52.388Z,108.80
2018-02-08T12:52:20.671Z,117.20
2018-02-08T12:54:48.933Z,104.72
2018-02-08T12:57:16.482Z,102.50
2018-02-08T12:59:44.079Z,90.45
2018-02-08T13:02:11.631Z,115.10
2018-02-08T13:04:39.915Z,104.97
2018-02-08T13:07:08.220Z,101.03
2018-02-08T13:09:36.821Z,94.82
2018-02-08T13:12:04.323Z,98.90
2018-02-08T13:14:31.852Z,109.97
2018-02-08T13:16:59.381Z,105.97
2018-02-08T13:19:26.916Z,108.32
2018-02-08T13:21:54.422Z,99.70
2018-02-08T13:24:21.953Z,109.72
2018-02-08T13:26:49.457Z,101.53
2018-02-08T13:29:16.973Z,101.78
2018-02-08T13:31:46.274Z,100.70
2018-02-08T13:34:14.632Z,113.00
2018-02-08T13:36:45.184Z,106.53
2018-02-08T13:39:14.543Z,118.00
2018-02-08T13:41:42.150Z,121.53
2018-02-08T13:44:14.117Z,114.22
2018-02-08T13:46:43.043Z,111.12
2018-02-08T13:49:20.750Z,130.43
2018-02-08T13:55:09.736Z,112.05
2018-02-08T14:00:43.882Z,111.12
2018-02-08T14:03:11.417Z,121.93
2018-02-08T14:05:39.068Z,97.00
2018-02-08T14:08:06.619Z,110.97
2018-02-08T14:10:34.159Z,120.90
2018-02-08T14:13:01.688Z,107.50
2018-02-08T14:15:30.455Z,104.10
2018-02-08T14:17:57.955Z,112.53
2018-02-08T14:20:26.241Z,103.93
2018-02-08T14:22:53.752Z,104.55
2018-02-08T14:25:21.314Z,111.40
2018-02-08T14:27:48.836Z,105.03
2018-02-08T14:30:16.363Z,121.13
2018-02-08T14:32:44.648Z,115.00
2018-02-08T14:35:12.168Z,108.28
2018-02-08T14:37:39.726Z,108.70
2018-02-08T14:40:07.343Z,107.63
2018-02-08T14:42:34.908Z,119.22
2018-02-08T14:45:02.430Z,129.43
2018-02-08T14:47:31.143Z,119.35
2018-02-08T14:49:59.424Z,103.82
2018-02-08T14:52:26.951Z,127.82
2018-02-08T14:54:54.472Z,117.80
2018-02-08T14:57:21.980Z,108.97
2018-02-08T14:59:50.290Z,126.05
2018-02-08T15:02:17.802Z,129.20
2018-02-08T15:04:45.342Z,110.80
2018-02-08T15:07:12.842Z,118.07
2018-02-08T15:09:41.135Z,137.45
2018-02-08T15:12:09.984Z,123.45
2018-02-08T15:14:37.551Z,113.70
2018-02-08T15:17:05.061Z,122.70
2018-02-08T15:19:32.589Z,126.70
2018-02-08T15:22:00.885Z,116.57
2018-02-08T15:24:28.427Z,116.45
2018-02-08T15:26:56.738Z,123.32
2018-02-08T15:29:24.324Z,127.43
2018-02-08T15:31:51.895Z,121.60
2018-02-08T15:34:19.376Z,118.90
2018-02-08T15:36:46.936Z,115.75
2018-02-08T15:39:14.453Z,104.12
2018-02-08T15:41:41.964Z,111.62
2018-02-08T15:44:10.260Z,114.72
2018-02-08T15:46:37.788Z,109.32
2018-02-08T15:49:05.420Z,114.30
2018-02-08T15:51:32.937Z,118.85
2018-02-08T15:54:01.250Z,126.95
2018-02-08T15:56:29.197Z,122.60
2018-02-08T15:58:56.742Z,120.15
2018-02-08T16:01:25.012Z,127.78
2018-02-08T16:03:53.320Z,115.07
2018-02-08T16:06:20.871Z,127.22
2018-02-08T16:08:48.396Z,123.65
2018-02-08T16:11:15.917Z,114.62
2018-02-08T16:13:43.420Z,115.72
2018-02-08T16:16:10.948Z,112.07
2018-02-08T16:18:38.464Z,126.80
2018-02-08T16:21:05.994Z,124.70
2018-02-08T16:23:33.503Z,105.82
2018-02-08T16:26:01.012Z,111.28
2018-02-08T16:28:28.536Z,101.32
2018-02-08T16:30:56.049Z,109.57
2018-02-08T16:33:24.350Z,111.30
2018-02-08T16:35:51.861Z,111.28
2018-02-08T16:38:19.390Z,109.90
2018-02-08T16:40:46.956Z,119.65
2018-02-08T16:43:14.482Z,130.98
2018-02-08T16:45:42.004Z,114.82
2018-02-08T16:48:09.530Z,114.03
2018-02-08T16:50:37.829Z,105.70
2018-02-08T16:53:05.341Z,102.38
2018-02-08T16:55:32.874Z,129.57
2018-02-08T16:58:01.172Z,118.30
2018-02-08T17:00:30.465Z,119.00
2018-02-08T17:02:58.761Z,105.40
2018-02-08T17:05:26.302Z,117.87
2018-02-08T17:07:53.806Z,113.25
2018-02-08T17:10:27.087Z,108.85
2018-02-08T17:12:54.611Z,103.78
2018-02-08T17:15:22.924Z,125.90
2018-02-08T17:17:50.468Z,113.15
2018-02-08T17:20:17.984Z,113.80
2018-02-08T17:22:45.509Z,107.85
2018-02-08T17:25:13.030Z,114.62
2018-02-08T17:27:40.560Z,113.95
2018-02-08T17:30:08.073Z,120.47
2018-02-08T17:32:35.592Z,119.80
2018-02-08T17:35:03.109Z,119.45
2018-02-08T17:37:30.620Z,117.60
2018-02-08T17:39:58.158Z,106.37
2018-02-08T17:42:25.687Z,119.20
2018-02-08T17:44:53.213Z,95.57
2018-02-08T17:47:21.501Z,115.20
2018-02-08T17:49:49.028Z,110.10
2018-02-08T17:52:16.536Z,122.68
2018-02-08T17:54:44.078Z,126.62
2018-02-08T17:57:11.592Z,128.18
2018-02-08T17:59:39.133Z,113.47
2018-02-08T18:02:06.685Z,118.13
2018-02-08T18:04:34.233Z,105.10
2018-02-08T18:07:01.867Z,109.70
2018-02-08T18:09:30.168Z,120.05
2018-02-08T18:11:57.697Z,109.35
2018-02-08T18:14:25.200Z,111.10
2018-02-08T18:16:52.747Z,122.90
2018-02-08T18:19:21.470Z,117.25
2018-02-08T18:21:48.996Z,109.47
2018-02-08T18:24:16.531Z,119.87
2018-02-08T18:26:44.804Z,103.28
2018-02-08T18:29:13.137Z,98.70
2018-02-08T18:31:40.656Z,123.28
2018-02-08T18:34:08.186Z,107.55
2018-02-08T18:36:35.708Z,109.37
2018-02-08T18:39:03.243Z,113.03
2018-02-08T18:41:30.768Z,109.53
2018-02-08T18:43:58.277Z,118.95
2018-02-08T18:46:28.887Z,114.88
2018-02-08T18:48:57.166Z,106.95
2018-02-08T18:51:25.466Z,114.28
2018-02-08T18:53:54.850Z,106.15
2018-02-08T18:56:22.926Z,119.07
2018-02-08T18:58:51.405Z,118.28
2018-02-08T19:01:19.006Z,107.03
2018-02-08T19:03:46.538Z,108.25
2018-02-08T19:06:14.091Z,116.93
2018-02-08T19:08:42.480Z,114.45
2018-02-08T19:11:09.998Z,105.07
2018-02-08T19:13:38.376Z,111.82
2018-02-08T19:16:06.428Z,97.35
2018-02-08T19:18:34.001Z,104.95
2018-02-08T19:21:02.126Z,113.03
2018-02-08T19:23:30.461Z,111.10
2018-02-08T19:25:58.047Z,114.18
2018-02-08T19:28:25.589Z,113.30
2018-02-08T19:30:53.209Z,112.72
2018-02-08T19:33:20.724Z,108.25
2018-02-08T19:35:49.017Z,105.30
2018-02-08T19:38:16.529Z,126.47
2018-02-08T19:40:44.040Z,106.03
2018-02-08T19:43:11.666Z,116.93
2018-02-08T19:45:39.957Z,111.53
2018-02-08T19:48:07.506Z,114.03
2018-02-08T19:50:35.021Z,114.45
2018-02-08T19:53:02.554Z,110.78
2018-02-08T19:55:30.116Z,105.72
2018-02-08T19:57:57.615Z,107.28
2018-02-08T20:00:25.151Z,111.72
2018-02-08T20:02:53.365Z,108.95
2018-02-08T20:05:20.924Z,115.28
2018-02-08T20:07:48.433Z,113.40
2018-02-08T20:10:15.979Z,95.18
2018-02-08T20:12:44.249Z,115.00
2018-02-08T20:15:14.009Z,119.87
2018-02-08T20:17:41.533Z,119.45
2018-02-08T20:20:09.041Z,109.00
2018-02-08T20:22:36.573Z,103.38
2018-02-08T20:28:11.014Z,115.62
2018-02-08T20:30:38.584Z,123.38
2018-02-08T20:33:06.093Z,103.93
2018-02-08T20:35:33.608Z,105.72
2018-02-08T20:38:01.141Z,107.20
2018-02-08T20:40:31.424Z,99.95
2018-02-08T20:43:04.579Z,110.68
2018-02-08T20:45:32.085Z,118.65
2018-02-08T20:47:59.618Z,112.85
2018-02-08T20:50:27.142Z,125.53
2018-02-08T20:52:54.680Z,111.75
2018-02-08T20:55:22.996Z,109.55
2018-02-08T20:57:50.492Z,123.70
2018-02-08T21:00:18.026Z,97.80
2018-02-08T21:02:45.536Z,106.25
2018-02-08T21:05:13.833Z,114.40
2018-02-08T21:07:41.351Z,108.65
2018-02-08T21:10:08.887Z,113.30
2018-02-08T21:12:36.405Z,109.53
2018-02-08T21:15:04.705Z,114.47
2018-02-08T21:17:32.206Z,118.22
2018-02-08T21:19:59.725Z,120.85
2018-02-08T21:22:27.251Z,117.57
2018-02-08T21:24:54.779Z,128.23
2018-02-08T21:27:22.304Z,124.38
2018-02-08T21:29:49.805Z,113.03
2018-02-08T21:32:17.344Z,127.28
2018-02-08T21:34:44.854Z,101.30
2018-02-08T21:37:12.386Z,118.53
2018-02-08T21:39:39.894Z,130.50
2018-02-08T21:42:08.199Z,107.00
2018-02-08T21:44:35.706Z,103.15
2018-02-08T21:47:03.225Z,113.35
2018-02-08T21:49:30.764Z,132.05
2018-02-08T21:51:58.273Z,102.68
2018-02-08T21:54:25.809Z,108.18
2018-02-08T21:56:53.323Z,111.03
2018-02-08T21:59:20.862Z,97.43
2018-02-08T22:01:49.144Z,128.75
2018-02-08T22:04:17.459Z,111.55
2018-02-08T22:06:45.205Z,125.55
2018-02-08T22:09:12.731Z,110.05
2018-02-08T22:11:40.279Z,110.18
2018-02-08T22:14:07.798Z,115.07
2018-02-08T22:16:35.327Z,111.40
2018-02-08T22:19:03.604Z,110.93
2018-02-08T22:21:31.897Z,107.65
2018-02-08T22:23:59.414Z,114.43
2018-02-08T22:26:26.956Z,106.05
2018-02-08T22:28:54.464Z,121.25
2018-02-08T22:31:21.980Z,125.75
2018-02-08T22:33:49.509Z,107.60
2018-02-08T22:36:17.020Z,123.05
2018-02-08T22:38:44.553Z,114.22
2018-02-08T22:41:12.061Z,113.88
2018-02-08T22:43:40.364Z,117.55
2018-02-08T22:46:07.882Z,120.00
2018-02-08T22:48:36.201Z,118.43
2018-02-08T22:51:03.724Z,104.05
2018-02-08T22:53:32.017Z,117.60
2018-02-08T22:56:00.315Z,127.38
2018-02-08T22:58:27.923Z,120.25
2018-02-08T23:00:55.465Z,121.60
2018-02-08T23:03:22.985Z,113.80
2018-02-08T23:05:50.519Z,123.75
2018-02-08T23:08:18.825Z,117.68
2018-02-08T23:10:46.363Z,123.82
2018-02-08T23:13:14.641Z,111.65
2018-02-08T23:15:42.928Z,117.13
2018-02-08T23:18:11.231Z,109.65
2018-02-08T23:20:38.733Z,117.03
2018-02-08T23:23:06.269Z,118.62
2018-02-08T23:25:33.789Z,119.10
2018-02-08T23:28:02.078Z,133.12
2018-02-08T23:30:29.585Z,118.97
2018-02-08T23:32:57.138Z,122.05
2018-02-08T23:35:24.654Z,118.03
2018-02-08T23:37:52.181Z,130.60
2018-02-08T23:40:20.688Z,121.28
2018-02-08T23:42:48.211Z,122.47
2018-02-08T23:45:15.742Z,125.10
2018-02-08T23:47:43.252Z,122.40
2018-02-08T23:50:10.787Z,120.47
2018-02-08T23:52:38.292Z,124.47
2018-02-08T23:55:05.860Z,108.00
2018-02-08T23:57:33.366Z,113.30
